AMX270 MMMY-SKBO
Flight info
| Callsign | AMX270 |
|---|---|
| Flight time | N/A |
| Altitude | 33000 |
| Route | XOTAT1 XOTAT UT11 ELIXI DCT EBDUB DCT DUSAT UM206 DASMO/N0468F350 UM206 BZE UR899 ROA UM208 FALLA UA552 SPP DCT KAKOL DCT KUBEK DCT RNG DCT ISVAT ISVAT5W |
| Aircraft | B738/M-SDE2E3FGHIRWXY/LB1 |
Departure
| Time | 2026-05-08 19:29 |
|---|---|
| Airport | Monterrey International Airport (MMMY) |
Arrival
| Time | N/A |
|---|---|
| Airport | El Dorado International Airport (SKBO) |
| Time | Latitude | Longitude | Altitude | Speed | Heading |
|---|---|---|---|---|---|
| 2026-05-08 18:50 | 25.77939 | -100.11428 | 1280 ft | 0 kts | 212° |
| 2026-05-08 19:14 | 25.77939 | -100.11427 | 1280 ft | 0 kts | 212° |
| 2026-05-08 19:18 | 25.77955 | -100.11417 | 1283 ft | 4 kts | 211° |
| 2026-05-08 19:18 | 25.77978 | -100.11401 | 1281 ft | 4 kts | 211° |
| 2026-05-08 19:18 | 25.77997 | -100.11387 | 1281 ft | 4 kts | 237° |
| 2026-05-08 19:18 | 25.78000 | -100.11363 | 1282 ft | 4 kts | 295° |
| 2026-05-08 19:19 | 25.77992 | -100.11347 | 1283 ft | 1 kts | 301° |
| 2026-05-08 19:19 | 25.77990 | -100.11345 | 1284 ft | 2 kts | 301° |
| 2026-05-08 19:22 | 25.77993 | -100.11350 | 1283 ft | 1 kts | 299° |
| 2026-05-08 19:22 | 25.77997 | -100.11359 | 1282 ft | 1 kts | 299° |
| 2026-05-08 19:22 | 25.78002 | -100.11367 | 1280 ft | 2 kts | 299° |
| 2026-05-08 19:23 | 25.78008 | -100.11380 | 1282 ft | 2 kts | 300° |
| 2026-05-08 19:23 | 25.78026 | -100.11413 | 1280 ft | 6 kts | 301° |
| 2026-05-08 19:23 | 25.78045 | -100.11449 | 1280 ft | 5 kts | 301° |
| 2026-05-08 19:23 | 25.78066 | -100.11485 | 1281 ft | 5 kts | 302° |
| 2026-05-08 19:24 | 25.78086 | -100.11520 | 1280 ft | 5 kts | 302° |
| 2026-05-08 19:24 | 25.78106 | -100.11555 | 1280 ft | 5 kts | 302° |
| 2026-05-08 19:24 | 25.78125 | -100.11590 | 1280 ft | 5 kts | 300° |
| 2026-05-08 19:24 | 25.78143 | -100.11625 | 1280 ft | 5 kts | 300° |
| 2026-05-08 19:25 | 25.78162 | -100.11659 | 1280 ft | 5 kts | 301° |
| 2026-05-08 19:25 | 25.78180 | -100.11693 | 1280 ft | 5 kts | 301° |
| 2026-05-08 19:25 | 25.78198 | -100.11726 | 1280 ft | 5 kts | 301° |
| 2026-05-08 19:25 | 25.78217 | -100.11759 | 1280 ft | 5 kts | 302° |
| 2026-05-08 19:26 | 25.78235 | -100.11792 | 1280 ft | 5 kts | 302° |
| 2026-05-08 19:26 | 25.78262 | -100.11809 | 1280 ft | 5 kts | 1° |
| 2026-05-08 19:26 | 25.78291 | -100.11794 | 1280 ft | 5 kts | 30° |
| 2026-05-08 19:26 | 25.78318 | -100.11776 | 1281 ft | 5 kts | 30° |
| 2026-05-08 19:27 | 25.78345 | -100.11759 | 1280 ft | 4 kts | 31° |
| 2026-05-08 19:27 | 25.78371 | -100.11741 | 1280 ft | 4 kts | 32° |
| 2026-05-08 19:27 | 25.78396 | -100.11721 | 1280 ft | 4 kts | 43° |
| 2026-05-08 19:27 | 25.78402 | -100.11690 | 1280 ft | 4 kts | 104° |
| 2026-05-08 19:28 | 25.78396 | -100.11678 | 1280 ft | 0 kts | 121° |
| 2026-05-08 19:28 | 25.78371 | -100.11633 | 1280 ft | 29 kts | 121° |
| 2026-05-08 19:28 | 25.78254 | -100.11420 | 1280 ft | 67 kts | 122° |
| 2026-05-08 19:28 | 25.77921 | -100.10810 | 1279 ft | 116 kts | 121° |
| 2026-05-08 19:29 | 25.77422 | -100.09910 | 1271 ft | 157 kts | 120° |
| 2026-05-08 19:29 | 25.76778 | -100.08765 | 1377 ft | 187 kts | 121° |
| 2026-05-08 19:29 | 25.76089 | -100.07471 | 1720 ft | 204 kts | 119° |
| 2026-05-08 19:29 | 25.75092 | -100.05609 | 2205 ft | 218 kts | 120° |
| 2026-05-08 19:30 | 25.74327 | -100.04091 | 2447 ft | 235 kts | 118° |
| 2026-05-08 19:30 | 25.73771 | -100.02991 | 2540 ft | 249 kts | 119° |
| 2026-05-08 19:30 | 25.72895 | -100.01263 | 2820 ft | 262 kts | 119° |
| 2026-05-08 19:30 | 25.72017 | -99.99487 | 3230 ft | 273 kts | 118° |
| 2026-05-08 19:31 | 25.71191 | -99.97505 | 3515 ft | 290 kts | 114° |
| 2026-05-08 19:31 | 25.70358 | -99.95359 | 3285 ft | 323 kts | 117° |
| 2026-05-08 19:31 | 25.69262 | -99.93030 | 2872 ft | 359 kts | 118° |
| 2026-05-08 19:31 | 25.68122 | -99.90595 | 3425 ft | 358 kts | 116° |
| 2026-05-08 19:32 | 25.67467 | -99.87949 | 4031 ft | 356 kts | 91° |
| 2026-05-08 19:32 | 25.67989 | -99.85344 | 5043 ft | 343 kts | 63° |
| 2026-05-08 19:32 | 25.69386 | -99.83282 | 6068 ft | 327 kts | 50° |
| 2026-05-08 19:32 | 25.70379 | -99.81101 | 7052 ft | 314 kts | 79° |
| 2026-05-08 19:33 | 25.70311 | -99.78706 | 7644 ft | 314 kts | 109° |
| 2026-05-08 19:33 | 25.69382 | -99.76514 | 8135 ft | 317 kts | 118° |
| 2026-05-08 19:33 | 25.68443 | -99.74278 | 8607 ft | 322 kts | 113° |
| 2026-05-08 19:33 | 25.67570 | -99.71989 | 9130 ft | 324 kts | 114° |
| 2026-05-08 19:34 | 25.66697 | -99.69673 | 9671 ft | 327 kts | 112° |
| 2026-05-08 19:34 | 25.65869 | -99.67318 | 10153 ft | 329 kts | 111° |
| 2026-05-08 19:34 | 25.65085 | -99.64919 | 10601 ft | 333 kts | 110° |
| 2026-05-08 19:34 | 25.64332 | -99.62474 | 11054 ft | 337 kts | 110° |
| 2026-05-08 19:35 | 25.63599 | -99.59993 | 11524 ft | 341 kts | 110° |
| 2026-05-08 19:35 | 25.62887 | -99.57511 | 11987 ft | 345 kts | 110° |
| 2026-05-08 19:35 | 25.62167 | -99.54959 | 12457 ft | 349 kts | 110° |
| 2026-05-08 19:35 | 25.61447 | -99.52379 | 12951 ft | 352 kts | 110° |
| 2026-05-08 19:36 | 25.60723 | -99.49768 | 13440 ft | 357 kts | 110° |
| 2026-05-08 19:36 | 25.59992 | -99.47125 | 13907 ft | 361 kts | 110° |
| 2026-05-08 19:36 | 25.59254 | -99.44452 | 14408 ft | 363 kts | 110° |
| 2026-05-08 19:36 | 25.58515 | -99.41775 | 14918 ft | 364 kts | 110° |
| 2026-05-08 19:37 | 25.57770 | -99.39076 | 15434 ft | 367 kts | 110° |
| 2026-05-08 19:37 | 25.57020 | -99.36361 | 15950 ft | 370 kts | 110° |
| 2026-05-08 19:37 | 25.56264 | -99.33626 | 16456 ft | 372 kts | 111° |
| 2026-05-08 19:37 | 25.55502 | -99.30874 | 16957 ft | 375 kts | 111° |
| 2026-05-08 19:38 | 25.54734 | -99.28099 | 17471 ft | 378 kts | 111° |
| 2026-05-08 19:38 | 25.53958 | -99.25303 | 17963 ft | 381 kts | 111° |
| 2026-05-08 19:38 | 25.53177 | -99.22486 | 18405 ft | 384 kts | 111° |
| 2026-05-08 19:38 | 25.52388 | -99.19645 | 18822 ft | 387 kts | 111° |
| 2026-05-08 19:39 | 25.51595 | -99.16790 | 19239 ft | 389 kts | 111° |
| 2026-05-08 19:39 | 25.50796 | -99.13918 | 19655 ft | 392 kts | 111° |
| 2026-05-08 19:39 | 25.49990 | -99.11022 | 20075 ft | 394 kts | 111° |
| 2026-05-08 19:39 | 25.49180 | -99.08114 | 20480 ft | 397 kts | 111° |
| 2026-05-08 19:40 | 25.48363 | -99.05184 | 20886 ft | 400 kts | 112° |
| 2026-05-08 19:40 | 25.47552 | -99.02275 | 21436 ft | 396 kts | 112° |
| 2026-05-08 19:40 | 25.46746 | -98.99377 | 22095 ft | 392 kts | 112° |
| 2026-05-08 19:40 | 25.45938 | -98.96485 | 22478 ft | 395 kts | 112° |
| 2026-05-08 19:41 | 25.45120 | -98.93567 | 22805 ft | 399 kts | 112° |
| 2026-05-08 19:41 | 25.44295 | -98.90626 | 23168 ft | 402 kts | 112° |
| 2026-05-08 19:41 | 25.43462 | -98.87657 | 23525 ft | 405 kts | 112° |
| 2026-05-08 19:41 | 25.42626 | -98.84677 | 23831 ft | 407 kts | 112° |
| 2026-05-08 19:42 | 25.41784 | -98.81675 | 24133 ft | 409 kts | 112° |
| 2026-05-08 19:42 | 25.40937 | -98.78661 | 24429 ft | 412 kts | 112° |
| 2026-05-08 19:42 | 25.40083 | -98.75622 | 24727 ft | 414 kts | 112° |
| 2026-05-08 19:42 | 25.39224 | -98.72568 | 25006 ft | 417 kts | 112° |
| 2026-05-08 19:43 | 25.38358 | -98.69494 | 25299 ft | 420 kts | 112° |
| 2026-05-08 19:43 | 25.37489 | -98.66408 | 25580 ft | 422 kts | 112° |
| 2026-05-08 19:43 | 25.36614 | -98.63305 | 25874 ft | 424 kts | 112° |
| 2026-05-08 19:43 | 25.35732 | -98.60179 | 26165 ft | 426 kts | 113° |
| 2026-05-08 19:44 | 25.34846 | -98.57043 | 26447 ft | 428 kts | 113° |
| 2026-05-08 19:44 | 25.33955 | -98.53891 | 26725 ft | 431 kts | 113° |
| 2026-05-08 19:44 | 25.33058 | -98.50724 | 26991 ft | 433 kts | 113° |
| 2026-05-08 19:44 | 25.32024 | -98.47610 | 27241 ft | 430 kts | 122° |
| 2026-05-08 19:45 | 25.30556 | -98.44758 | 27511 ft | 424 kts | 131° |
| 2026-05-08 19:45 | 25.28737 | -98.42226 | 27772 ft | 417 kts | 142° |
| 2026-05-08 19:45 | 25.26705 | -98.40001 | 28038 ft | 417 kts | 143° |
| 2026-05-08 19:45 | 25.24609 | -98.37769 | 28286 ft | 419 kts | 143° |
| 2026-05-08 19:46 | 25.22497 | -98.35533 | 28525 ft | 421 kts | 143° |
| 2026-05-08 19:46 | 25.20381 | -98.33285 | 28776 ft | 423 kts | 143° |
| 2026-05-08 19:46 | 25.16124 | -98.28726 | 29268 ft | 428 kts | 143° |
| 2026-05-08 19:47 | 25.13985 | -98.26423 | 29492 ft | 430 kts | 143° |
| 2026-05-08 19:47 | 25.11841 | -98.24111 | 29715 ft | 432 kts | 143° |
| 2026-05-08 19:47 | 25.09688 | -98.21788 | 29935 ft | 434 kts | 143° |
| 2026-05-08 19:47 | 25.07523 | -98.19452 | 30135 ft | 436 kts | 142° |
| 2026-05-08 19:48 | 25.05349 | -98.17107 | 30341 ft | 437 kts | 142° |
| 2026-05-08 19:48 | 25.03198 | -98.14788 | 30538 ft | 439 kts | 143° |
| 2026-05-08 19:48 | 25.01009 | -98.12430 | 30725 ft | 440 kts | 143° |
| 2026-05-08 19:48 | 24.98812 | -98.10065 | 30914 ft | 442 kts | 143° |
| 2026-05-08 19:49 | 24.96609 | -98.07696 | 31103 ft | 443 kts | 142° |
| 2026-05-08 19:49 | 24.94400 | -98.05321 | 31286 ft | 445 kts | 142° |
| 2026-05-08 19:49 | 24.92179 | -98.02934 | 31464 ft | 446 kts | 142° |
| 2026-05-08 19:49 | 24.89951 | -98.00541 | 31634 ft | 447 kts | 142° |
| 2026-05-08 19:50 | 24.87716 | -97.98142 | 31829 ft | 449 kts | 142° |
| 2026-05-08 19:50 | 24.85482 | -97.95744 | 31997 ft | 450 kts | 142° |
| 2026-05-08 19:50 | 24.83236 | -97.93336 | 32171 ft | 451 kts | 142° |
| 2026-05-08 19:50 | 24.80987 | -97.90925 | 32332 ft | 452 kts | 142° |
| 2026-05-08 19:51 | 24.78726 | -97.88504 | 32493 ft | 453 kts | 142° |
| 2026-05-08 19:51 | 24.76462 | -97.86080 | 32645 ft | 455 kts | 142° |
| 2026-05-08 19:51 | 24.74196 | -97.83655 | 32805 ft | 455 kts | 142° |
| 2026-05-08 19:51 | 24.71922 | -97.81223 | 32845 ft | 458 kts | 142° |
| 2026-05-08 19:52 | 24.67318 | -97.76307 | 32851 ft | 464 kts | 142° |
| 2026-05-08 19:52 | 24.62691 | -97.71369 | 32856 ft | 470 kts | 142° |
| 2026-05-08 19:53 | 24.57975 | -97.66340 | 32853 ft | 475 kts | 142° |
| 2026-05-08 19:53 | 24.53204 | -97.61258 | 32855 ft | 480 kts | 142° |
| 2026-05-08 19:54 | 24.48386 | -97.56131 | 32860 ft | 484 kts | 142° |
| 2026-05-08 19:54 | 24.43518 | -97.50956 | 32858 ft | 489 kts | 142° |
| 2026-05-08 19:55 | 24.38607 | -97.45740 | 32851 ft | 492 kts | 141° |
| 2026-05-08 19:55 | 24.33669 | -97.40501 | 32851 ft | 495 kts | 141° |
| 2026-05-08 19:56 | 24.29167 | -97.34691 | 32858 ft | 503 kts | 133° |
| 2026-05-08 19:56 | 24.24915 | -97.28582 | 32856 ft | 504 kts | 132° |
| 2026-05-08 19:57 | 24.20680 | -97.22505 | 32850 ft | 504 kts | 133° |
| 2026-05-08 19:57 | 24.16404 | -97.16446 | 32853 ft | 503 kts | 133° |
| 2026-05-08 19:58 | 24.12113 | -97.10408 | 32850 ft | 501 kts | 133° |
| 2026-05-08 19:58 | 24.07830 | -97.04394 | 32854 ft | 500 kts | 133° |
| 2026-05-08 19:59 | 24.03552 | -96.98392 | 32851 ft | 500 kts | 133° |
| 2026-05-08 19:59 | 23.99279 | -96.92401 | 32854 ft | 499 kts | 133° |
| 2026-05-08 20:00 | 23.95007 | -96.86417 | 32848 ft | 498 kts | 133° |
| 2026-05-08 20:00 | 23.90741 | -96.80451 | 32855 ft | 498 kts | 133° |
| 2026-05-08 20:01 | 23.86472 | -96.74486 | 32862 ft | 498 kts | 133° |
| 2026-05-08 20:01 | 23.82206 | -96.68534 | 32854 ft | 498 kts | 133° |
| 2026-05-08 20:02 | 23.77934 | -96.62580 | 32856 ft | 498 kts | 133° |
| 2026-05-08 20:02 | 23.73663 | -96.56635 | 32854 ft | 498 kts | 133° |
| 2026-05-08 20:03 | 23.69388 | -96.50690 | 32855 ft | 498 kts | 133° |
| 2026-05-08 20:03 | 23.65109 | -96.44748 | 32857 ft | 498 kts | 133° |
| 2026-05-08 20:04 | 23.60825 | -96.38805 | 32856 ft | 498 kts | 133° |
| 2026-05-08 20:04 | 23.56542 | -96.32870 | 32855 ft | 498 kts | 133° |
| 2026-05-08 20:05 | 23.52250 | -96.26931 | 32857 ft | 498 kts | 133° |
| 2026-05-08 20:05 | 23.47991 | -96.21043 | 32852 ft | 498 kts | 133° |
| 2026-05-08 20:06 | 23.43699 | -96.15117 | 32851 ft | 498 kts | 133° |
| 2026-05-08 20:06 | 23.39398 | -96.09186 | 32858 ft | 498 kts | 133° |
| 2026-05-08 20:07 | 23.35103 | -96.03270 | 32850 ft | 498 kts | 133° |
| 2026-05-08 20:07 | 23.30806 | -95.97358 | 32853 ft | 498 kts | 133° |
| 2026-05-08 20:08 | 23.26508 | -95.91451 | 32851 ft | 498 kts | 133° |
| 2026-05-08 20:08 | 23.22212 | -95.85554 | 32847 ft | 497 kts | 133° |
| 2026-05-08 20:09 | 23.17918 | -95.79666 | 32854 ft | 497 kts | 132° |
| 2026-05-08 20:09 | 23.13618 | -95.73778 | 32857 ft | 496 kts | 132° |
| 2026-05-08 20:10 | 23.09326 | -95.67907 | 32853 ft | 496 kts | 132° |
| 2026-05-08 20:10 | 23.05064 | -95.62083 | 32843 ft | 495 kts | 132° |
| 2026-05-08 20:11 | 23.00772 | -95.56226 | 32857 ft | 495 kts | 132° |
| 2026-05-08 20:11 | 22.96486 | -95.50383 | 32852 ft | 494 kts | 132° |